createdAt,value
2019-03-31T00:02:11.215Z,3.50
2019-03-31T00:04:41.617Z,3.50
2019-03-31T00:07:12.141Z,3.50
2019-03-31T00:09:53.606Z,3.40
2019-03-31T00:12:24.042Z,3.50
2019-03-31T00:14:54.474Z,3.50
2019-03-31T00:17:24.990Z,3.50
2019-03-31T00:19:55.399Z,3.40
2019-03-31T00:22:25.935Z,3.30
2019-03-31T00:24:56.322Z,3.30
2019-03-31T00:27:26.942Z,3.30
2019-03-31T00:29:57.348Z,3.30
2019-03-31T00:32:27.773Z,3.30
2019-03-31T00:34:58.195Z,3.30
2019-03-31T00:37:28.675Z,3.30
2019-03-31T00:39:58.964Z,3.30
2019-03-31T00:42:29.436Z,3.20
2019-03-31T00:44:59.861Z,3.30
2019-03-31T00:47:30.305Z,3.20
2019-03-31T00:50:00.760Z,3.20
2019-03-31T00:52:32.407Z,3.20
2019-03-31T00:55:03.040Z,3.20
2019-03-31T00:57:33.488Z,3.20
2019-03-31T01:00:06.825Z,3.30
2019-03-31T01:02:37.324Z,3.20
2019-03-31T01:05:07.895Z,3.10
2019-03-31T01:07:38.291Z,3.10
2019-03-31T01:10:09.775Z,3.10
2019-03-31T01:12:40.855Z,3.00
2019-03-31T01:15:15.813Z,3.00
2019-03-31T01:17:46.597Z,3.00
2019-03-31T01:20:17.674Z,3.00
2019-03-31T01:22:48.677Z,2.90
2019-03-31T01:25:19.649Z,2.90
2019-03-31T01:27:50.282Z,2.90
2019-03-31T01:30:22.110Z,2.90
2019-03-31T01:32:53.666Z,2.80
2019-03-31T01:35:24.023Z,2.80
2019-03-31T01:37:54.433Z,2.80
2019-03-31T01:40:24.838Z,2.80
2019-03-31T01:42:55.230Z,3.00
2019-03-31T01:45:27.513Z,3.00
2019-03-31T01:47:57.950Z,2.80
2019-03-31T01:50:28.343Z,2.90
2019-03-31T01:52:58.763Z,2.80
2019-03-31T01:55:29.171Z,2.80
2019-03-31T01:57:59.557Z,2.70
2019-03-31T02:00:43.871Z,2.70
2019-03-31T02:03:14.267Z,2.60
2019-03-31T02:05:44.826Z,2.60
2019-03-31T02:08:15.258Z,2.60
2019-03-31T02:10:45.714Z,2.60
2019-03-31T02:13:16.087Z,2.60
2019-03-31T02:15:46.678Z,2.60
2019-03-31T02:18:17.171Z,2.60
2019-03-31T02:20:47.576Z,2.60
2019-03-31T02:23:17.987Z,2.60
2019-03-31T02:25:48.378Z,2.60
2019-03-31T02:28:22.202Z,2.70
2019-03-31T02:30:52.591Z,2.70
2019-03-31T02:33:23.040Z,2.70
2019-03-31T02:35:53.386Z,2.60
2019-03-31T02:38:23.895Z,2.50
2019-03-31T02:40:54.397Z,2.60
2019-03-31T02:43:27.018Z,2.50
2019-03-31T02:45:57.409Z,2.40
2019-03-31T02:48:27.870Z,2.50
2019-03-31T02:50:58.441Z,2.60
2019-03-31T02:53:29.039Z,2.60
2019-03-31T02:56:00.109Z,2.50
2019-03-31T02:58:31.765Z,2.50
2019-03-31T03:01:03.292Z,2.60
2019-03-31T03:03:35.747Z,2.60
2019-03-31T03:06:07.296Z,2.50
2019-03-31T03:08:40.314Z,2.40
2019-03-31T03:11:12.565Z,2.30
2019-03-31T03:13:45.288Z,2.40
2019-03-31T03:16:18.233Z,2.40
2019-03-31T03:18:48.687Z,2.40
2019-03-31T03:21:23.443Z,2.30
2019-03-31T03:23:51.218Z,2.30
2019-03-31T03:26:21.569Z,2.30
2019-03-31T03:28:52.093Z,2.40
2019-03-31T03:31:22.601Z,2.40
2019-03-31T03:33:53.194Z,2.40
2019-03-31T03:36:23.585Z,2.40
2019-03-31T03:38:54.006Z,2.50
2019-03-31T03:41:24.557Z,2.70
2019-03-31T03:43:59.598Z,2.90
2019-03-31T03:46:26.952Z,3.20
2019-03-31T03:48:59.066Z,3.50
2019-03-31T03:51:29.605Z,3.80
2019-03-31T03:54:00.122Z,4.20
2019-03-31T03:56:31.769Z,4.50
2019-03-31T03:59:02.254Z,4.70
2019-03-31T04:01:33.523Z,4.90
2019-03-31T04:04:05.510Z,5.30
2019-03-31T04:06:37.370Z,5.80
2019-03-31T04:09:07.961Z,6.30
2019-03-31T04:11:38.381Z,6.80
2019-03-31T04:14:08.861Z,7.00
2019-03-31T04:16:39.472Z,7.30
2019-03-31T04:19:10.158Z,7.40
2019-03-31T04:21:40.613Z,8.30
2019-03-31T04:24:11.053Z,8.80
2019-03-31T04:26:41.449Z,9.20
2019-03-31T04:29:11.976Z,9.40
2019-03-31T04:31:42.413Z,9.50
2019-03-31T04:34:12.907Z,9.40
2019-03-31T04:36:43.271Z,9.20
2019-03-31T04:39:13.890Z,9.50
2019-03-31T04:41:44.324Z,9.60
2019-03-31T04:44:14.839Z,9.90
2019-03-31T04:46:45.277Z,10.00
2019-03-31T04:49:15.690Z,10.40
2019-03-31T04:51:46.127Z,10.60
2019-03-31T04:54:16.736Z,10.90
2019-03-31T04:56:47.216Z,11.10
2019-03-31T04:59:17.720Z,11.00
2019-03-31T05:01:48.952Z,11.30
2019-03-31T05:04:19.403Z,11.40
2019-03-31T05:06:49.925Z,11.70
2019-03-31T05:09:20.863Z,11.60
2019-03-31T05:11:53.286Z,11.50
2019-03-31T05:14:23.706Z,11.70
2019-03-31T05:16:54.084Z,11.70
2019-03-31T05:19:25.214Z,11.90
2019-03-31T05:21:57.331Z,11.90
2019-03-31T05:24:27.912Z,12.30
2019-03-31T05:27:02.861Z,12.10
2019-03-31T05:29:33.516Z,12.80
2019-03-31T05:32:05.085Z,12.20
2019-03-31T05:34:35.643Z,12.10
2019-03-31T05:37:06.052Z,12.50
2019-03-31T05:39:36.516Z,12.60
2019-03-31T05:42:06.941Z,13.00
2019-03-31T05:44:37.369Z,13.30
2019-03-31T05:47:10.215Z,13.70
2019-03-31T05:49:40.145Z,14.70
2019-03-31T05:52:10.595Z,14.60
2019-03-31T05:54:49.980Z,14.90
2019-03-31T05:57:20.381Z,15.50
2019-03-31T05:59:50.778Z,16.10
2019-03-31T06:02:21.250Z,16.30
2019-03-31T06:04:51.695Z,16.70
2019-03-31T06:07:22.162Z,17.30
2019-03-31T06:09:55.499Z,17.40
2019-03-31T06:12:27.489Z,16.80
2019-03-31T06:14:58.098Z,16.90
2019-03-31T06:17:30.381Z,16.70
2019-03-31T06:20:03.843Z,16.10
2019-03-31T06:22:34.407Z,15.00
2019-03-31T06:25:06.869Z,13.80
2019-03-31T06:27:38.959Z,12.80
2019-03-31T06:30:17.317Z,12.60
2019-03-31T06:32:55.601Z,12.50
2019-03-31T06:35:29.774Z,12.30
2019-03-31T06:38:01.050Z,11.80
2019-03-31T06:40:49.849Z,11.70
2019-03-31T06:43:30.833Z,11.50
2019-03-31T06:46:03.809Z,11.30
2019-03-31T06:48:40.382Z,11.20
2019-03-31T06:51:11.869Z,11.20
2019-03-31T06:53:44.986Z,11.10
2019-03-31T06:56:17.872Z,11.20
2019-03-31T06:58:48.335Z,11.40
2019-03-31T07:01:27.067Z,11.50
2019-03-31T07:03:55.618Z,11.50
2019-03-31T07:06:28.966Z,11.50
2019-03-31T07:09:11.235Z,11.40
2019-03-31T07:11:38.415Z,11.30
2019-03-31T07:14:08.913Z,11.50
2019-03-31T07:16:39.311Z,11.60
2019-03-31T07:19:09.708Z,11.50
2019-03-31T07:21:40.232Z,11.70
2019-03-31T07:24:10.638Z,12.10
2019-03-31T07:26:47.177Z,12.10
2019-03-31T07:29:19.263Z,12.50
2019-03-31T07:31:50.065Z,12.40
2019-03-31T07:34:20.545Z,12.40
2019-03-31T07:36:51.036Z,12.60
2019-03-31T07:39:21.472Z,12.90
2019-03-31T07:41:53.443Z,12.80
2019-03-31T07:44:23.934Z,12.80
2019-03-31T07:47:01.297Z,12.90
2019-03-31T07:50:03.171Z,13.20
2019-03-31T07:52:44.020Z,13.50
2019-03-31T07:55:17.055Z,13.70
2019-03-31T07:57:47.517Z,13.70
2019-03-31T08:00:24.608Z,13.60
2019-03-31T08:03:00.289Z,13.60
2019-03-31T08:05:33.327Z,13.70
2019-03-31T08:08:02.587Z,13.80
2019-03-31T08:10:33.038Z,13.80
2019-03-31T08:13:03.498Z,13.40
2019-03-31T08:15:33.949Z,13.60
2019-03-31T08:18:04.475Z,14.00
2019-03-31T08:20:37.662Z,14.10
2019-03-31T08:23:08.189Z,14.30
2019-03-31T08:25:55.267Z,14.20
2019-03-31T08:28:29.124Z,14.30
2019-03-31T08:30:59.548Z,14.40
2019-03-31T08:33:30.202Z,14.10
2019-03-31T08:36:00.624Z,13.90
2019-03-31T08:38:31.263Z,14.10
2019-03-31T08:41:01.714Z,14.40
2019-03-31T08:43:32.230Z,14.50
2019-03-31T08:46:02.659Z,14.60
2019-03-31T08:48:33.004Z,14.80
2019-03-31T08:51:04.427Z,14.70
2019-03-31T08:53:34.856Z,14.90
2019-03-31T08:56:08.570Z,14.70
2019-03-31T08:58:37.374Z,14.80
2019-03-31T09:01:09.340Z,14.60
2019-03-31T09:03:39.885Z,14.70
2019-03-31T09:06:12.446Z,14.90
2019-03-31T09:08:42.806Z,14.90
2019-03-31T09:11:13.336Z,14.90
2019-03-31T09:13:43.854Z,15.00
2019-03-31T09:16:14.268Z,15.10
2019-03-31T09:18:44.713Z,15.00
2019-03-31T09:21:15.210Z,15.20
2019-03-31T09:23:45.699Z,15.10
2019-03-31T09:26:16.194Z,15.00
2019-03-31T09:28:46.666Z,15.10
2019-03-31T09:31:17.095Z,15.40
2019-03-31T09:33:47.591Z,15.30
2019-03-31T09:36:18.078Z,15.20
2019-03-31T09:38:48.731Z,15.20
2019-03-31T09:41:19.197Z,15.40
2019-03-31T09:43:50.486Z,15.50
2019-03-31T09:46:20.846Z,15.20
2019-03-31T09:48:51.226Z,14.90
2019-03-31T09:51:21.717Z,14.70
2019-03-31T09:53:54.805Z,15.00
2019-03-31T09:56:32.825Z,15.20
2019-03-31T09:59:03.277Z,15.60
2019-03-31T10:01:33.783Z,15.80
2019-03-31T10:04:04.365Z,15.80
2019-03-31T10:06:34.914Z,15.80
2019-03-31T10:09:07.040Z,15.90
2019-03-31T10:11:37.553Z,16.00
2019-03-31T10:14:08.000Z,15.90
2019-03-31T10:16:38.461Z,16.10
2019-03-31T10:19:08.860Z,16.20
2019-03-31T10:21:39.345Z,16.20
2019-03-31T10:24:12.487Z,16.10
2019-03-31T10:26:43.004Z,16.00
2019-03-31T10:29:13.498Z,16.20
2019-03-31T10:31:43.932Z,16.10
2019-03-31T10:34:14.370Z,16.20
2019-03-31T10:36:45.171Z,16.40
2019-03-31T10:39:15.678Z,16.30
2019-03-31T10:41:46.160Z,16.30
2019-03-31T10:44:16.624Z,16.40
2019-03-31T10:53:11.069Z,16.40
2019-03-31T10:55:42.698Z,16.20
2019-03-31T10:58:13.290Z,16.10
2019-03-31T11:00:44.656Z,16.30
2019-03-31T11:03:15.858Z,16.50
2019-03-31T11:05:48.378Z,16.60
2019-03-31T11:08:19.012Z,16.70
2019-03-31T11:10:49.502Z,16.70
2019-03-31T11:13:20.881Z,16.60
2019-03-31T11:15:51.265Z,16.70
2019-03-31T11:18:21.951Z,16.80
2019-03-31T11:20:52.366Z,16.70
2019-03-31T11:23:24.451Z,16.60
2019-03-31T11:25:55.287Z,16.80
2019-03-31T11:28:26.060Z,16.80
2019-03-31T11:30:56.467Z,16.70
2019-03-31T11:33:26.878Z,16.70
2019-03-31T11:35:57.285Z,16.70
2019-03-31T11:38:27.697Z,16.80
2019-03-31T11:40:58.254Z,17.00
2019-03-31T11:43:28.678Z,17.00
2019-03-31T11:45:59.121Z,17.10
2019-03-31T11:48:29.499Z,17.00
2019-03-31T11:51:00.510Z,17.00
2019-03-31T11:53:31.258Z,17.10
2019-03-31T11:56:01.881Z,17.20
2019-03-31T11:58:32.540Z,17.40
2019-03-31T12:01:03.075Z,17.40
2019-03-31T12:03:33.523Z,17.50
2019-03-31T12:06:03.989Z,17.60
2019-03-31T12:08:34.422Z,17.70
2019-03-31T12:11:04.993Z,17.70
2019-03-31T12:13:35.411Z,17.70
2019-03-31T12:16:05.779Z,17.80
2019-03-31T12:18:38.995Z,17.70
2019-03-31T12:21:11.850Z,17.70
2019-03-31T12:23:45.023Z,17.80
2019-03-31T12:26:17.198Z,17.80
2019-03-31T12:28:50.669Z,17.70
2019-03-31T12:31:21.536Z,17.70
2019-03-31T12:33:51.957Z,17.70
2019-03-31T12:36:23.146Z,17.80
2019-03-31T12:38:58.570Z,17.90
2019-03-31T12:41:29.086Z,17.60
2019-03-31T12:44:03.690Z,17.70
2019-03-31T12:46:35.941Z,17.80
2019-03-31T12:49:06.391Z,17.90
2019-03-31T12:51:36.797Z,18.00
2019-03-31T12:54:07.234Z,18.00
2019-03-31T12:56:37.766Z,18.00
2019-03-31T12:59:08.258Z,18.10
2019-03-31T13:01:40.303Z,18.10
2019-03-31T13:04:11.541Z,18.10
2019-03-31T13:06:42.083Z,18.00
2019-03-31T13:09:12.491Z,18.00
2019-03-31T13:11:42.886Z,18.00
2019-03-31T13:14:18.422Z,17.80
2019-03-31T13:16:53.919Z,17.80
2019-03-31T13:19:32.770Z,17.90
2019-03-31T13:22:06.318Z,17.90
2019-03-31T13:24:40.995Z,17.90
2019-03-31T13:27:14.326Z,17.90
2019-03-31T13:29:44.745Z,18.00
2019-03-31T13:32:29.928Z,18.00
2019-03-31T13:34:58.740Z,18.00
2019-03-31T13:37:29.184Z,17.90
2019-03-31T13:39:59.724Z,17.90
2019-03-31T13:42:30.247Z,18.00
2019-03-31T13:45:07.405Z,18.00
2019-03-31T13:47:38.484Z,18.00
2019-03-31T13:50:09.904Z,18.00
2019-03-31T13:52:43.208Z,17.90
2019-03-31T13:55:13.587Z,17.90
2019-03-31T13:57:45.041Z,17.90
2019-03-31T14:00:25.085Z,17.90
2019-03-31T14:02:51.553Z,17.90
2019-03-31T14:05:22.002Z,17.90
2019-03-31T14:07:52.447Z,17.90
2019-03-31T14:10:22.902Z,17.80
2019-03-31T14:12:55.000Z,17.70
2019-03-31T14:15:27.716Z,17.70
2019-03-31T14:17:59.993Z,17.50
2019-03-31T14:20:31.727Z,17.40
2019-03-31T14:23:08.177Z,17.30
2019-03-31T14:25:38.592Z,17.40
2019-03-31T14:28:10.725Z,17.40
2019-03-31T14:30:41.200Z,17.20
2019-03-31T14:33:11.789Z,17.20
2019-03-31T14:35:45.020Z,17.20
2019-03-31T14:38:18.436Z,17.20
2019-03-31T14:40:50.678Z,17.30
2019-03-31T14:43:21.777Z,17.30
2019-03-31T14:45:52.149Z,17.20
2019-03-31T14:48:22.628Z,17.10
2019-03-31T14:50:54.677Z,17.10
2019-03-31T14:53:52.752Z,17.00
2019-03-31T14:57:02.458Z,17.00
2019-03-31T14:59:35.973Z,16.90
2019-03-31T15:02:20.879Z,16.90
2019-03-31T15:04:53.790Z,16.80
2019-03-31T15:07:24.183Z,16.70
2019-03-31T15:09:54.602Z,16.60
2019-03-31T15:12:25.097Z,16.60
2019-03-31T15:14:55.532Z,16.50
2019-03-31T15:17:25.972Z,16.40
2019-03-31T15:19:56.452Z,16.30
2019-03-31T15:22:26.938Z,16.30
2019-03-31T15:24:59.969Z,16.20
2019-03-31T15:27:30.397Z,16.10
2019-03-31T15:30:00.823Z,16.10
2019-03-31T15:32:31.377Z,16.00
2019-03-31T15:35:01.855Z,16.00
2019-03-31T15:37:32.367Z,15.90
2019-03-31T15:40:02.967Z,15.80
2019-03-31T15:42:33.359Z,15.70
2019-03-31T15:45:07.974Z,15.60
2019-03-31T15:47:38.441Z,15.40
2019-03-31T15:50:09.395Z,15.40
2019-03-31T15:52:41.093Z,15.30
2019-03-31T15:55:11.796Z,15.20
2019-03-31T15:57:42.244Z,15.10
2019-03-31T16:00:13.119Z,15.00
2019-03-31T16:02:43.571Z,14.90
2019-03-31T16:05:14.206Z,14.70
2019-03-31T16:07:46.756Z,14.70
2019-03-31T16:10:17.486Z,14.60
2019-03-31T16:12:47.894Z,14.60
2019-03-31T16:15:18.802Z,14.60
2019-03-31T16:17:49.172Z,14.60
2019-03-31T16:20:19.633Z,14.40
2019-03-31T16:22:50.050Z,14.40
2019-03-31T16:25:22.068Z,14.50
2019-03-31T16:27:52.602Z,14.40
2019-03-31T16:30:23.078Z,14.30
2019-03-31T16:32:53.578Z,14.20
2019-03-31T16:35:23.958Z,14.00
2019-03-31T16:37:54.364Z,13.80
2019-03-31T16:40:24.764Z,13.80
2019-03-31T16:42:55.243Z,13.70
2019-03-31T16:45:30.419Z,13.50
2019-03-31T16:48:03.722Z,13.20
2019-03-31T16:50:35.374Z,12.90
2019-03-31T16:53:07.586Z,12.70
2019-03-31T16:55:38.080Z,12.60
2019-03-31T16:58:10.457Z,12.40
2019-03-31T17:00:41.049Z,12.30
2019-03-31T17:03:11.663Z,12.10
2019-03-31T17:05:42.105Z,12.00
2019-03-31T17:08:12.648Z,12.00
2019-03-31T17:10:43.200Z,11.90
2019-03-31T17:13:13.649Z,11.70
2019-03-31T17:15:46.284Z,11.70
2019-03-31T17:18:17.151Z,11.70
2019-03-31T17:20:48.702Z,11.70
2019-03-31T17:23:22.482Z,11.60
2019-03-31T17:25:54.954Z,11.50
2019-03-31T17:28:27.309Z,11.50
2019-03-31T17:31:12.236Z,11.50
2019-03-31T17:33:35.237Z,11.50
2019-03-31T17:36:15.254Z,11.50
2019-03-31T17:38:51.147Z,11.50
2019-03-31T17:41:27.167Z,11.30
2019-03-31T17:43:59.559Z,11.30
2019-03-31T17:46:35.501Z,11.10
2019-03-31T17:49:12.041Z,11.10
2019-03-31T17:51:46.807Z,11.10
2019-03-31T17:54:19.891Z,11.10
2019-03-31T17:56:53.449Z,11.10
2019-03-31T17:59:28.961Z,11.10
2019-03-31T18:02:05.816Z,11.00
2019-03-31T18:04:38.978Z,10.90
2019-03-31T18:07:11.266Z,10.90
2019-03-31T18:09:47.695Z,10.90
2019-03-31T18:12:20.154Z,10.90
2019-03-31T18:15:02.605Z,11.00
2019-03-31T18:17:34.985Z,10.90
2019-03-31T18:20:09.038Z,10.80
2019-03-31T18:22:40.998Z,10.70
2019-03-31T18:25:13.267Z,10.90
2019-03-31T18:27:48.505Z,11.00
2019-03-31T18:30:29.882Z,11.00
2019-03-31T18:33:10.358Z,11.00
2019-03-31T18:35:48.800Z,10.90
2019-03-31T18:38:30.117Z,10.80
2019-03-31T18:41:03.645Z,10.70
2019-03-31T18:43:50.288Z,10.60
2019-03-31T18:46:11.767Z,10.50
2019-03-31T18:48:43.772Z,10.60
2019-03-31T18:51:20.456Z,10.40
2019-03-31T18:53:54.158Z,10.40
2019-03-31T18:56:44.143Z,10.30
2019-03-31T18:59:35.321Z,10.40
2019-03-31T19:02:25.232Z,10.30
2019-03-31T19:04:58.920Z,10.20
2019-03-31T19:07:52.165Z,10.20
2019-03-31T19:10:43.327Z,10.20
2019-03-31T19:13:12.645Z,10.20
2019-03-31T19:15:55.681Z,10.20
2019-03-31T19:18:32.063Z,10.10
2019-03-31T19:21:14.915Z,9.90
2019-03-31T19:23:52.796Z,9.80
2019-03-31T19:26:28.691Z,9.70
2019-03-31T19:29:02.143Z,9.70
2019-03-31T19:31:50.514Z,9.60
2019-03-31T19:34:33.316Z,9.40
2019-03-31T19:37:09.934Z,9.40
2019-03-31T19:39:58.803Z,9.40
2019-03-31T19:42:34.805Z,9.40
2019-03-31T19:45:20.989Z,9.40
2019-03-31T19:47:53.227Z,9.60
2019-03-31T19:50:41.076Z,9.70
2019-03-31T19:53:24.564Z,9.80
2019-03-31T19:56:07.555Z,9.80
2019-03-31T19:58:30.296Z,9.80
2019-03-31T20:01:22.617Z,9.70
2019-03-31T20:04:00.717Z,9.60
2019-03-31T20:06:44.492Z,9.50
2019-03-31T20:09:22.412Z,9.40
2019-03-31T20:12:12.868Z,9.20
2019-03-31T20:15:01.187Z,9.20
2019-03-31T20:17:45.907Z,9.10
2019-03-31T20:20:26.918Z,9.00
2019-03-31T20:23:05.621Z,9.00
2019-03-31T20:25:37.606Z,8.90
2019-03-31T20:28:09.673Z,8.90
2019-03-31T20:30:47.410Z,8.90
2019-03-31T20:33:31.486Z,8.90
2019-03-31T20:36:19.818Z,8.90
2019-03-31T20:38:55.616Z,8.90
2019-03-31T20:41:44.079Z,8.90
2019-03-31T20:44:14.542Z,9.00
2019-03-31T20:46:47.992Z,9.20
2019-03-31T20:49:18.540Z,9.30
2019-03-31T20:51:48.973Z,9.40
2019-03-31T20:54:19.356Z,9.30
2019-03-31T20:56:51.761Z,9.30
2019-03-31T20:59:22.177Z,9.30
2019-03-31T21:01:53.893Z,9.20
2019-03-31T21:04:24.344Z,9.20
2019-03-31T21:06:54.760Z,9.10
2019-03-31T21:09:25.262Z,8.90
2019-03-31T21:11:55.691Z,8.80
2019-03-31T21:14:26.140Z,8.80
2019-03-31T21:16:56.519Z,8.70
2019-03-31T21:19:26.919Z,8.80
2019-03-31T21:21:57.323Z,9.00
2019-03-31T21:24:27.727Z,9.00
2019-03-31T21:26:58.218Z,8.80
2019-03-31T21:29:28.627Z,8.60
2019-03-31T21:31:59.086Z,8.40
2019-03-31T21:34:29.599Z,8.20
2019-03-31T21:37:00.041Z,8.20
2019-03-31T21:39:30.522Z,8.30
2019-03-31T21:42:00.934Z,8.40
2019-03-31T21:44:31.350Z,8.40
2019-03-31T21:47:01.889Z,8.40
2019-03-31T21:49:32.352Z,8.50
2019-03-31T21:52:02.761Z,8.50
2019-03-31T21:54:33.186Z,8.60
2019-03-31T21:57:03.831Z,8.60
2019-03-31T21:59:34.271Z,8.60
2019-03-31T22:02:06.093Z,8.50
2019-03-31T22:04:36.582Z,8.50
2019-03-31T22:07:07.027Z,8.50
2019-03-31T22:09:37.584Z,8.40
2019-03-31T22:12:07.992Z,8.50
2019-03-31T22:14:38.456Z,8.50
2019-03-31T22:17:08.917Z,8.50
2019-03-31T22:19:39.297Z,8.60
2019-03-31T22:22:09.705Z,8.60
2019-03-31T22:24:40.095Z,8.40
2019-03-31T22:27:10.597Z,8.50
2019-03-31T22:29:41.080Z,8.60
2019-03-31T22:32:11.569Z,8.90
2019-03-31T22:34:41.900Z,9.00
2019-03-31T22:37:12.381Z,9.00
2019-03-31T22:39:42.799Z,9.00
2019-03-31T22:42:13.216Z,9.10
2019-03-31T22:44:43.650Z,9.10
2019-03-31T22:47:14.062Z,9.10
2019-03-31T22:49:44.471Z,9.10
2019-03-31T22:52:14.932Z,9.10
2019-03-31T22:54:45.375Z,9.10
2019-03-31T22:57:15.785Z,9.10
2019-03-31T22:59:46.262Z,9.10
2019-03-31T23:02:16.684Z,9.00
2019-03-31T23:04:47.257Z,9.00
2019-03-31T23:07:17.743Z,9.10
2019-03-31T23:09:48.232Z,8.90
2019-03-31T23:12:21.260Z,8.90
2019-03-31T23:14:51.681Z,8.90
2019-03-31T23:17:22.094Z,8.90
2019-03-31T23:19:52.575Z,9.00
2019-03-31T23:22:22.945Z,9.00
2019-03-31T23:24:53.398Z,8.90
2019-03-31T23:27:23.764Z,8.80
2019-03-31T23:29:54.196Z,8.70
2019-03-31T23:32:24.624Z,8.80
2019-03-31T23:34:55.142Z,8.80
2019-03-31T23:37:25.562Z,8.80
2019-03-31T23:39:56.009Z,8.80
2019-03-31T23:42:26.418Z,8.80
2019-03-31T23:44:56.779Z,8.70
2019-03-31T23:47:27.199Z,8.80
2019-03-31T23:49:57.574Z,8.70
2019-03-31T23:52:28.007Z,8.70
2019-03-31T23:55:03.518Z,8.60
2019-03-31T23:57:40.518Z,8.60
